sensor_id;sensor_type;location;lat;lon;timestamp;temperature;humidity
68051;DHT22;54839;51.364;7.246;2022-11-21T00:00:17;4.20;99.90
68051;DHT22;54839;51.364;7.246;2022-11-21T00:02:43;4.20;99.90
68051;DHT22;54839;51.364;7.246;2022-11-21T00:05:08;4.20;99.90
68051;DHT22;54839;51.364;7.246;2022-11-21T00:07:34;4.20;99.90
68051;DHT22;54839;51.364;7.246;2022-11-21T00:09:59;4.20;99.90
68051;DHT22;54839;51.364;7.246;2022-11-21T00:12:25;4.20;99.90
68051;DHT22;54839;51.364;7.246;2022-11-21T00:14:51;4.20;99.90
68051;DHT22;54839;51.364;7.246;2022-11-21T00:17:16;4.10;99.90
68051;DHT22;54839;51.364;7.246;2022-11-21T00:19:42;4.00;99.90
68051;DHT22;54839;51.364;7.246;2022-11-21T00:22:08;4.00;99.90
68051;DHT22;54839;51.364;7.246;2022-11-21T00:24:33;4.00;99.90
68051;DHT22;54839;51.364;7.246;2022-11-21T00:26:59;4.00;99.90
68051;DHT22;54839;51.364;7.246;2022-11-21T00:29:25;3.90;99.90
68051;DHT22;54839;51.364;7.246;2022-11-21T00:31:50;3.90;99.90
68051;DHT22;54839;51.364;7.246;2022-11-21T00:34:16;3.80;99.90
68051;DHT22;54839;51.364;7.246;2022-11-21T00:36:42;3.90;99.90
68051;DHT22;54839;51.364;7.246;2022-11-21T00:39:07;3.70;99.90
68051;DHT22;54839;51.364;7.246;2022-11-21T00:41:33;3.70;99.90
68051;DHT22;54839;51.364;7.246;2022-11-21T00:43:58;3.60;99.90
68051;DHT22;54839;51.364;7.246;2022-11-21T00:46:24;3.70;99.90
68051;DHT22;54839;51.364;7.246;2022-11-21T00:48:50;3.70;99.90
68051;DHT22;54839;51.364;7.246;2022-11-21T00:51:15;3.60;99.90
68051;DHT22;54839;51.364;7.246;2022-11-21T00:53:41;3.50;99.90
68051;DHT22;54839;51.364;7.246;2022-11-21T00:56:06;3.60;99.90
68051;DHT22;54839;51.364;7.246;2022-11-21T00:58:32;3.60;99.90
68051;DHT22;54839;51.364;7.246;2022-11-21T01:01:07;3.60;99.90
68051;DHT22;54839;51.364;7.246;2022-11-21T01:03:33;3.70;99.90
68051;DHT22;54839;51.364;7.246;2022-11-21T01:06:10;3.70;99.90
68051;DHT22;54839;51.364;7.246;2022-11-21T01:08:38;3.60;99.90
68051;DHT22;54839;51.364;7.246;2022-11-21T01:11:07;3.70;99.90
68051;DHT22;54839;51.364;7.246;2022-11-21T01:13:34;3.60;99.90
68051;DHT22;54839;51.364;7.246;2022-11-21T01:16:15;3.60;99.90
68051;DHT22;54839;51.364;7.246;2022-11-21T01:18:41;3.60;99.90
68051;DHT22;54839;51.364;7.246;2022-11-21T01:21:27;3.50;99.90
68051;DHT22;54839;51.364;7.246;2022-11-21T01:23:53;3.50;99.90
68051;DHT22;54839;51.364;7.246;2022-11-21T01:26:22;3.40;99.90
68051;DHT22;54839;51.364;7.246;2022-11-21T01:28:49;3.30;99.90
68051;DHT22;54839;51.364;7.246;2022-11-21T01:31:23;3.30;99.90
68051;DHT22;54839;51.364;7.246;2022-11-21T01:33:50;3.30;99.90
68051;DHT22;54839;51.364;7.246;2022-11-21T01:36:18;3.40;99.90
68051;DHT22;54839;51.364;7.246;2022-11-21T01:38:47;3.40;99.90
68051;DHT22;54839;51.364;7.246;2022-11-21T01:41:16;3.50;99.90
68051;DHT22;54839;51.364;7.246;2022-11-21T01:43:42;3.40;99.90
68051;DHT22;54839;51.364;7.246;2022-11-21T01:51:17;3.40;99.90
68051;DHT22;54839;51.364;7.246;2022-11-21T01:53:47;3.50;99.90
68051;DHT22;54839;51.364;7.246;2022-11-21T01:56:14;3.50;99.90
68051;DHT22;54839;51.364;7.246;2022-11-21T01:58:41;3.40;99.90
68051;DHT22;54839;51.364;7.246;2022-11-21T02:01:09;3.30;99.90
68051;DHT22;54839;51.364;7.246;2022-11-21T02:03:37;3.40;99.90
68051;DHT22;54839;51.364;7.246;2022-11-21T02:06:05;3.40;99.90
68051;DHT22;54839;51.364;7.246;2022-11-21T02:08:33;3.50;99.90
68051;DHT22;54839;51.364;7.246;2022-11-21T02:11:05;3.60;99.90
68051;DHT22;54839;51.364;7.246;2022-11-21T02:13:33;3.70;99.90
68051;DHT22;54839;51.364;7.246;2022-11-21T02:15:59;3.60;99.90
68051;DHT22;54839;51.364;7.246;2022-11-21T02:18:25;3.60;99.90
68051;DHT22;54839;51.364;7.246;2022-11-21T02:20:58;3.60;99.90
68051;DHT22;54839;51.364;7.246;2022-11-21T02:23:49;3.70;99.90
68051;DHT22;54839;51.364;7.246;2022-11-21T02:26:17;3.70;99.90
68051;DHT22;54839;51.364;7.246;2022-11-21T02:28:43;3.70;99.90
68051;DHT22;54839;51.364;7.246;2022-11-21T02:31:09;3.80;99.90
68051;DHT22;54839;51.364;7.246;2022-11-21T02:33:35;3.80;99.90
68051;DHT22;54839;51.364;7.246;2022-11-21T02:36:01;3.90;99.90
68051;DHT22;54839;51.364;7.246;2022-11-21T02:38:36;3.90;99.90
68051;DHT22;54839;51.364;7.246;2022-11-21T02:41:19;3.80;99.90
68051;DHT22;54839;51.364;7.246;2022-11-21T02:44:04;3.90;99.90
68051;DHT22;54839;51.364;7.246;2022-11-21T02:46:34;3.80;99.90
68051;DHT22;54839;51.364;7.246;2022-11-21T02:49:05;3.80;99.90
68051;DHT22;54839;51.364;7.246;2022-11-21T02:51:31;3.90;99.90
68051;DHT22;54839;51.364;7.246;2022-11-21T02:53:57;3.90;99.90
68051;DHT22;54839;51.364;7.246;2022-11-21T02:56:23;3.60;99.90
68051;DHT22;54839;51.364;7.246;2022-11-21T02:58:48;3.70;99.90
68051;DHT22;54839;51.364;7.246;2022-11-21T03:01:14;3.90;99.90
68051;DHT22;54839;51.364;7.246;2022-11-21T03:03:39;3.80;99.90
68051;DHT22;54839;51.364;7.246;2022-11-21T03:06:05;3.90;99.90
68051;DHT22;54839;51.364;7.246;2022-11-21T03:08:31;3.90;99.90
68051;DHT22;54839;51.364;7.246;2022-11-21T03:10:56;4.00;99.90
68051;DHT22;54839;51.364;7.246;2022-11-21T03:13:22;3.90;99.90
68051;DHT22;54839;51.364;7.246;2022-11-21T03:15:47;4.00;99.90
68051;DHT22;54839;51.364;7.246;2022-11-21T03:18:13;3.80;99.90
68051;DHT22;54839;51.364;7.246;2022-11-21T03:20:38;3.90;99.90
68051;DHT22;54839;51.364;7.246;2022-11-21T03:23:04;3.90;99.90
68051;DHT22;54839;51.364;7.246;2022-11-21T03:25:30;3.90;99.90
68051;DHT22;54839;51.364;7.246;2022-11-21T03:27:55;4.00;99.90
68051;DHT22;54839;51.364;7.246;2022-11-21T03:30:23;3.90;99.90
68051;DHT22;54839;51.364;7.246;2022-11-21T03:32:49;3.90;99.90
68051;DHT22;54839;51.364;7.246;2022-11-21T03:35:14;3.90;99.90
68051;DHT22;54839;51.364;7.246;2022-11-21T03:37:40;3.80;99.90
68051;DHT22;54839;51.364;7.246;2022-11-21T03:40:06;3.80;99.90
68051;DHT22;54839;51.364;7.246;2022-11-21T03:42:32;3.80;99.90
68051;DHT22;54839;51.364;7.246;2022-11-21T03:44:58;3.80;99.90
68051;DHT22;54839;51.364;7.246;2022-11-21T03:47:23;3.80;99.90
68051;DHT22;54839;51.364;7.246;2022-11-21T03:49:51;3.80;99.90
68051;DHT22;54839;51.364;7.246;2022-11-21T03:52:17;3.90;99.90
68051;DHT22;54839;51.364;7.246;2022-11-21T03:54:43;3.80;99.90
68051;DHT22;54839;51.364;7.246;2022-11-21T03:57:08;3.80;99.90
68051;DHT22;54839;51.364;7.246;2022-11-21T03:59:34;3.70;99.90
68051;DHT22;54839;51.364;7.246;2022-11-21T04:01:59;3.70;99.90
68051;DHT22;54839;51.364;7.246;2022-11-21T04:04:25;3.70;99.90
68051;DHT22;54839;51.364;7.246;2022-11-21T04:06:50;3.70;99.90
68051;DHT22;54839;51.364;7.246;2022-11-21T04:09:16;3.70;99.90
68051;DHT22;54839;51.364;7.246;2022-11-21T04:11:42;3.90;99.90
68051;DHT22;54839;51.364;7.246;2022-11-21T04:14:07;3.70;99.90
68051;DHT22;54839;51.364;7.246;2022-11-21T04:16:33;3.70;99.90
68051;DHT22;54839;51.364;7.246;2022-11-21T04:18:58;3.60;99.90
68051;DHT22;54839;51.364;7.246;2022-11-21T04:21:24;3.50;99.90
68051;DHT22;54839;51.364;7.246;2022-11-21T04:23:50;3.60;99.90
68051;DHT22;54839;51.364;7.246;2022-11-21T04:26:15;3.50;99.90
68051;DHT22;54839;51.364;7.246;2022-11-21T04:28:41;3.60;99.90
68051;DHT22;54839;51.364;7.246;2022-11-21T04:31:07;3.50;99.90
68051;DHT22;54839;51.364;7.246;2022-11-21T04:33:33;3.50;99.90
68051;DHT22;54839;51.364;7.246;2022-11-21T04:35:59;3.50;99.90
68051;DHT22;54839;51.364;7.246;2022-11-21T04:38:25;3.40;99.90
68051;DHT22;54839;51.364;7.246;2022-11-21T04:40:50;3.50;99.90
68051;DHT22;54839;51.364;7.246;2022-11-21T04:43:16;3.50;99.90
68051;DHT22;54839;51.364;7.246;2022-11-21T04:45:42;3.50;99.90
68051;DHT22;54839;51.364;7.246;2022-11-21T04:48:09;3.60;99.90
68051;DHT22;54839;51.364;7.246;2022-11-21T04:50:35;3.70;99.90
68051;DHT22;54839;51.364;7.246;2022-11-21T04:53:01;3.60;99.90
68051;DHT22;54839;51.364;7.246;2022-11-21T04:55:29;3.60;99.90
68051;DHT22;54839;51.364;7.246;2022-11-21T04:57:55;3.70;99.90
68051;DHT22;54839;51.364;7.246;2022-11-21T05:00:21;3.60;99.90
68051;DHT22;54839;51.364;7.246;2022-11-21T05:02:46;3.60;99.90
68051;DHT22;54839;51.364;7.246;2022-11-21T05:05:12;3.70;99.90
68051;DHT22;54839;51.364;7.246;2022-11-21T05:07:38;3.60;99.90
68051;DHT22;54839;51.364;7.246;2022-11-21T05:10:07;3.70;99.90
68051;DHT22;54839;51.364;7.246;2022-11-21T05:12:33;3.60;99.90
68051;DHT22;54839;51.364;7.246;2022-11-21T05:15:18;3.70;99.90
68051;DHT22;54839;51.364;7.246;2022-11-21T05:17:44;3.60;99.90
68051;DHT22;54839;51.364;7.246;2022-11-21T05:20:10;3.80;99.90
68051;DHT22;54839;51.364;7.246;2022-11-21T05:22:36;3.70;99.90
68051;DHT22;54839;51.364;7.246;2022-11-21T05:25:02;3.70;99.90
68051;DHT22;54839;51.364;7.246;2022-11-21T05:27:28;3.80;99.90
68051;DHT22;54839;51.364;7.246;2022-11-21T05:29:54;3.80;99.90
68051;DHT22;54839;51.364;7.246;2022-11-21T05:32:20;3.80;99.90
68051;DHT22;54839;51.364;7.246;2022-11-21T05:34:45;3.90;99.90
68051;DHT22;54839;51.364;7.246;2022-11-21T05:37:11;3.80;99.90
68051;DHT22;54839;51.364;7.246;2022-11-21T05:39:36;3.90;99.90
68051;DHT22;54839;51.364;7.246;2022-11-21T05:42:02;3.80;99.90
68051;DHT22;54839;51.364;7.246;2022-11-21T05:44:28;3.80;99.90
68051;DHT22;54839;51.364;7.246;2022-11-21T05:46:53;3.80;99.90
68051;DHT22;54839;51.364;7.246;2022-11-21T05:49:19;3.90;99.90
68051;DHT22;54839;51.364;7.246;2022-11-21T05:51:45;4.10;99.90
68051;DHT22;54839;51.364;7.246;2022-11-21T05:54:14;4.00;99.90
68051;DHT22;54839;51.364;7.246;2022-11-21T05:56:40;4.00;99.90
68051;DHT22;54839;51.364;7.246;2022-11-21T05:59:07;4.10;99.90
68051;DHT22;54839;51.364;7.246;2022-11-21T06:01:34;4.10;99.90
68051;DHT22;54839;51.364;7.246;2022-11-21T06:04:18;4.00;99.90
68051;DHT22;54839;51.364;7.246;2022-11-21T06:06:44;4.00;99.90
68051;DHT22;54839;51.364;7.246;2022-11-21T06:09:10;4.00;99.90
68051;DHT22;54839;51.364;7.246;2022-11-21T06:11:35;4.00;99.90
68051;DHT22;54839;51.364;7.246;2022-11-21T06:14:01;4.00;99.90
68051;DHT22;54839;51.364;7.246;2022-11-21T06:16:26;4.10;99.90
68051;DHT22;54839;51.364;7.246;2022-11-21T06:18:52;4.10;99.90
68051;DHT22;54839;51.364;7.246;2022-11-21T06:21:20;4.10;99.90
68051;DHT22;54839;51.364;7.246;2022-11-21T06:23:49;4.20;99.90
68051;DHT22;54839;51.364;7.246;2022-11-21T06:26:17;4.10;99.90
68051;DHT22;54839;51.364;7.246;2022-11-21T06:28:43;4.20;99.90
68051;DHT22;54839;51.364;7.246;2022-11-21T06:31:11;4.10;99.90
68051;DHT22;54839;51.364;7.246;2022-11-21T06:33:38;4.00;99.90
68051;DHT22;54839;51.364;7.246;2022-11-21T06:36:09;3.90;99.90
68051;DHT22;54839;51.364;7.246;2022-11-21T06:38:35;3.90;99.90
68051;DHT22;54839;51.364;7.246;2022-11-21T06:41:11;4.00;99.90
68051;DHT22;54839;51.364;7.246;2022-11-21T06:43:37;3.90;99.90
68051;DHT22;54839;51.364;7.246;2022-11-21T06:46:02;3.90;99.90
68051;DHT22;54839;51.364;7.246;2022-11-21T06:48:32;3.90;99.90
68051;DHT22;54839;51.364;7.246;2022-11-21T06:51:12;3.90;99.90
68051;DHT22;54839;51.364;7.246;2022-11-21T06:53:40;4.00;99.90
68051;DHT22;54839;51.364;7.246;2022-11-21T06:56:05;4.00;99.90
68051;DHT22;54839;51.364;7.246;2022-11-21T06:58:31;4.10;99.90
68051;DHT22;54839;51.364;7.246;2022-11-21T07:00:57;4.10;99.90
68051;DHT22;54839;51.364;7.246;2022-11-21T07:03:23;3.90;99.90
68051;DHT22;54839;51.364;7.246;2022-11-21T07:05:49;4.10;99.90
68051;DHT22;54839;51.364;7.246;2022-11-21T07:08:16;4.10;99.90
68051;DHT22;54839;51.364;7.246;2022-11-21T07:10:42;4.30;99.90
68051;DHT22;54839;51.364;7.246;2022-11-21T07:13:10;4.30;99.90
68051;DHT22;54839;51.364;7.246;2022-11-21T07:15:50;4.30;99.90
68051;DHT22;54839;51.364;7.246;2022-11-21T07:18:16;4.20;99.90
68051;DHT22;54839;51.364;7.246;2022-11-21T07:20:42;4.20;99.90
68051;DHT22;54839;51.364;7.246;2022-11-21T07:23:08;4.10;99.90
68051;DHT22;54839;51.364;7.246;2022-11-21T07:25:34;4.20;99.90
68051;DHT22;54839;51.364;7.246;2022-11-21T07:28:01;4.20;99.90
68051;DHT22;54839;51.364;7.246;2022-11-21T07:30:27;4.20;99.90
68051;DHT22;54839;51.364;7.246;2022-11-21T07:32:57;4.20;99.90
68051;DHT22;54839;51.364;7.246;2022-11-21T07:35:23;4.30;99.90
68051;DHT22;54839;51.364;7.246;2022-11-21T07:37:49;4.20;99.90
68051;DHT22;54839;51.364;7.246;2022-11-21T07:40:14;4.40;99.90
68051;DHT22;54839;51.364;7.246;2022-11-21T07:42:40;4.50;99.90
68051;DHT22;54839;51.364;7.246;2022-11-21T07:45:06;4.50;99.90
68051;DHT22;54839;51.364;7.246;2022-11-21T07:47:32;4.60;99.90
68051;DHT22;54839;51.364;7.246;2022-11-21T07:49:57;4.60;99.90
68051;DHT22;54839;51.364;7.246;2022-11-21T07:52:23;4.70;99.90
68051;DHT22;54839;51.364;7.246;2022-11-21T07:54:50;4.60;99.90
68051;DHT22;54839;51.364;7.246;2022-11-21T07:57:16;4.70;99.90
68051;DHT22;54839;51.364;7.246;2022-11-21T07:59:41;4.70;99.90
68051;DHT22;54839;51.364;7.246;2022-11-21T08:02:20;4.70;99.90
68051;DHT22;54839;51.364;7.246;2022-11-21T08:04:47;4.90;99.90
68051;DHT22;54839;51.364;7.246;2022-11-21T08:07:16;4.90;99.90
68051;DHT22;54839;51.364;7.246;2022-11-21T08:09:42;5.00;99.90
68051;DHT22;54839;51.364;7.246;2022-11-21T08:12:09;4.90;99.90
68051;DHT22;54839;51.364;7.246;2022-11-21T08:14:35;5.00;99.90
68051;DHT22;54839;51.364;7.246;2022-11-21T08:17:02;5.10;99.90
68051;DHT22;54839;51.364;7.246;2022-11-21T08:19:28;5.20;99.90
68051;DHT22;54839;51.364;7.246;2022-11-21T08:21:53;5.10;99.90
68051;DHT22;54839;51.364;7.246;2022-11-21T08:24:19;5.30;99.90
68051;DHT22;54839;51.364;7.246;2022-11-21T08:26:44;5.20;99.90
68051;DHT22;54839;51.364;7.246;2022-11-21T08:29:11;5.30;99.90
68051;DHT22;54839;51.364;7.246;2022-11-21T08:31:37;5.20;99.90
68051;DHT22;54839;51.364;7.246;2022-11-21T08:34:03;5.50;99.90
68051;DHT22;54839;51.364;7.246;2022-11-21T08:36:29;5.50;99.90
68051;DHT22;54839;51.364;7.246;2022-11-21T08:38:55;5.40;99.90
68051;DHT22;54839;51.364;7.246;2022-11-21T08:41:21;5.50;99.90
68051;DHT22;54839;51.364;7.246;2022-11-21T08:44:05;5.40;99.90
68051;DHT22;54839;51.364;7.246;2022-11-21T08:46:34;5.50;99.90
68051;DHT22;54839;51.364;7.246;2022-11-21T08:49:05;5.40;99.90
68051;DHT22;54839;51.364;7.246;2022-11-21T08:51:30;5.40;99.90
68051;DHT22;54839;51.364;7.246;2022-11-21T08:53:56;5.50;99.90
68051;DHT22;54839;51.364;7.246;2022-11-21T08:56:22;5.50;99.90
68051;DHT22;54839;51.364;7.246;2022-11-21T08:58:48;5.50;99.90
68051;DHT22;54839;51.364;7.246;2022-11-21T09:01:13;5.60;99.90
68051;DHT22;54839;51.364;7.246;2022-11-21T09:03:39;5.70;99.90
68051;DHT22;54839;51.364;7.246;2022-11-21T09:06:05;5.80;99.90
68051;DHT22;54839;51.364;7.246;2022-11-21T09:08:31;5.90;99.90
68051;DHT22;54839;51.364;7.246;2022-11-21T09:10:56;5.90;99.90
68051;DHT22;54839;51.364;7.246;2022-11-21T09:13:22;5.80;99.90
68051;DHT22;54839;51.364;7.246;2022-11-21T09:15:48;5.80;99.90
68051;DHT22;54839;51.364;7.246;2022-11-21T09:18:32;5.80;99.90
68051;DHT22;54839;51.364;7.246;2022-11-21T09:20:58;5.80;99.90
68051;DHT22;54839;51.364;7.246;2022-11-21T09:23:24;5.70;99.90
68051;DHT22;54839;51.364;7.246;2022-11-21T09:25:50;5.70;99.90
68051;DHT22;54839;51.364;7.246;2022-11-21T09:28:15;5.70;99.90
68051;DHT22;54839;51.364;7.246;2022-11-21T09:30:41;5.70;99.90
68051;DHT22;54839;51.364;7.246;2022-11-21T09:33:10;5.70;99.90
68051;DHT22;54839;51.364;7.246;2022-11-21T09:35:36;5.80;99.90
68051;DHT22;54839;51.364;7.246;2022-11-21T09:38:02;5.80;99.90
68051;DHT22;54839;51.364;7.246;2022-11-21T09:40:29;5.90;99.90
68051;DHT22;54839;51.364;7.246;2022-11-21T09:45:48;6.10;99.90
68051;DHT22;54839;51.364;7.246;2022-11-21T09:48:24;6.10;99.90
68051;DHT22;54839;51.364;7.246;2022-11-21T09:51:00;6.10;99.90
68051;DHT22;54839;51.364;7.246;2022-11-21T09:53:38;6.30;99.90
68051;DHT22;54839;51.364;7.246;2022-11-21T09:56:12;6.30;99.90
68051;DHT22;54839;51.364;7.246;2022-11-21T09:59:05;6.10;99.90
68051;DHT22;54839;51.364;7.246;2022-11-21T10:01:32;6.20;99.90
68051;DHT22;54839;51.364;7.246;2022-11-21T10:04:01;6.40;99.90
68051;DHT22;54839;51.364;7.246;2022-11-21T10:06:30;6.60;99.90
68051;DHT22;54839;51.364;7.246;2022-11-21T10:17:34;7.00;99.90
68051;DHT22;54839;51.364;7.246;2022-11-21T10:20:20;7.10;99.90
68051;DHT22;54839;51.364;7.246;2022-11-21T10:25:38;6.90;99.90
68051;DHT22;54839;51.364;7.246;2022-11-21T10:31:08;6.90;99.90
68051;DHT22;54839;51.364;7.246;2022-11-21T10:33:35;6.80;99.90
68051;DHT22;54839;51.364;7.246;2022-11-21T10:38:37;7.30;99.90
68051;DHT22;54839;51.364;7.246;2022-11-21T10:41:17;7.50;99.90
68051;DHT22;54839;51.364;7.246;2022-11-21T10:44:04;7.50;99.90
68051;DHT22;54839;51.364;7.246;2022-11-21T10:46:59;7.50;99.90
68051;DHT22;54839;51.364;7.246;2022-11-21T10:49:28;7.60;99.90
68051;DHT22;54839;51.364;7.246;2022-11-21T10:57:35;7.70;99.90
68051;DHT22;54839;51.364;7.246;2022-11-21T11:02:39;8.60;99.90
68051;DHT22;54839;51.364;7.246;2022-11-21T11:05:19;8.60;99.90
68051;DHT22;54839;51.364;7.246;2022-11-21T11:07:59;8.40;99.90
68051;DHT22;54839;51.364;7.246;2022-11-21T11:10:26;8.10;99.90
68051;DHT22;54839;51.364;7.246;2022-11-21T11:12:51;8.30;99.90
68051;DHT22;54839;51.364;7.246;2022-11-21T11:15:38;8.30;99.90
68051;DHT22;54839;51.364;7.246;2022-11-21T11:18:19;8.20;99.90
68051;DHT22;54839;51.364;7.246;2022-11-21T11:20:46;7.80;99.90
68051;DHT22;54839;51.364;7.246;2022-11-21T11:23:22;8.00;99.90
68051;DHT22;54839;51.364;7.246;2022-11-21T11:25:50;7.90;99.90
68051;DHT22;54839;51.364;7.246;2022-11-21T11:28:17;7.70;99.90
68051;DHT22;54839;51.364;7.246;2022-11-21T11:30:47;7.40;99.90
68051;DHT22;54839;51.364;7.246;2022-11-21T11:36:25;7.40;99.90
68051;DHT22;54839;51.364;7.246;2022-11-21T11:38:58;7.60;99.90
68051;DHT22;54839;51.364;7.246;2022-11-21T11:48:06;8.00;99.90
68051;DHT22;54839;51.364;7.246;2022-11-21T11:50:45;8.20;99.90
68051;DHT22;54839;51.364;7.246;2022-11-21T11:53:36;8.50;99.90
68051;DHT22;54839;51.364;7.246;2022-11-21T11:56:19;8.10;99.90
68051;DHT22;54839;51.364;7.246;2022-11-21T12:04:18;7.90;99.90
68051;DHT22;54839;51.364;7.246;2022-11-21T12:07:05;8.00;99.90
68051;DHT22;54839;51.364;7.246;2022-11-21T12:10:03;8.00;99.90
68051;DHT22;54839;51.364;7.246;2022-11-21T12:12:44;7.80;99.90
68051;DHT22;54839;51.364;7.246;2022-11-21T12:21:12;7.80;99.90
68051;DHT22;54839;51.364;7.246;2022-11-21T12:23:47;7.70;99.90
68051;DHT22;54839;51.364;7.246;2022-11-21T12:31:33;8.20;99.90
68051;DHT22;54839;51.364;7.246;2022-11-21T12:39:58;8.80;99.90
68051;DHT22;54839;51.364;7.246;2022-11-21T12:42:39;8.90;99.90
68051;DHT22;54839;51.364;7.246;2022-11-21T12:45:32;9.00;99.90
68051;DHT22;54839;51.364;7.246;2022-11-21T12:57:19;9.00;99.90
68051;DHT22;54839;51.364;7.246;2022-11-21T13:00:13;9.60;99.90
68051;DHT22;54839;51.364;7.246;2022-11-21T13:05:46;9.70;99.90
68051;DHT22;54839;51.364;7.246;2022-11-21T13:08:25;9.30;99.90
68051;DHT22;54839;51.364;7.246;2022-11-21T13:11:23;9.30;99.90
68051;DHT22;54839;51.364;7.246;2022-11-21T13:14:13;9.00;99.90
68051;DHT22;54839;51.364;7.246;2022-11-21T13:16:45;8.80;99.90
68051;DHT22;54839;51.364;7.246;2022-11-21T13:19:42;8.50;99.90
68051;DHT22;54839;51.364;7.246;2022-11-21T13:30:49;8.60;99.90
68051;DHT22;54839;51.364;7.246;2022-11-21T13:36:05;8.60;99.90
68051;DHT22;54839;51.364;7.246;2022-11-21T13:44:34;8.80;99.90
68051;DHT22;54839;51.364;7.246;2022-11-21T13:52:23;8.50;99.90
68051;DHT22;54839;51.364;7.246;2022-11-21T14:00:28;8.60;99.90
68051;DHT22;54839;51.364;7.246;2022-11-21T14:03:18;8.60;99.90
68051;DHT22;54839;51.364;7.246;2022-11-21T14:08:25;8.40;99.90
68051;DHT22;54839;51.364;7.246;2022-11-21T14:10:52;8.60;99.90
68051;DHT22;54839;51.364;7.246;2022-11-21T14:18:25;8.60;99.90
68051;DHT22;54839;51.364;7.246;2022-11-21T14:20:56;8.40;99.90
68051;DHT22;54839;51.364;7.246;2022-11-21T14:23:26;8.40;99.90
68051;DHT22;54839;51.364;7.246;2022-11-21T14:25:59;8.30;99.90
68051;DHT22;54839;51.364;7.246;2022-11-21T14:28:28;8.20;99.90
68051;DHT22;54839;51.364;7.246;2022-11-21T14:31:10;8.10;99.90
68051;DHT22;54839;51.364;7.246;2022-11-21T14:33:44;8.10;99.90
68051;DHT22;54839;51.364;7.246;2022-11-21T14:36:21;8.10;99.90
68051;DHT22;54839;51.364;7.246;2022-11-21T14:39:05;8.10;99.90
68051;DHT22;54839;51.364;7.246;2022-11-21T14:41:32;8.00;99.90
68051;DHT22;54839;51.364;7.246;2022-11-21T14:46:29;7.90;99.90
68051;DHT22;54839;51.364;7.246;2022-11-21T14:48:55;7.90;99.90
68051;DHT22;54839;51.364;7.246;2022-11-21T14:51:24;7.90;99.90
68051;DHT22;54839;51.364;7.246;2022-11-21T14:53:52;7.80;99.90
68051;DHT22;54839;51.364;7.246;2022-11-21T14:56:32;7.60;99.90
68051;DHT22;54839;51.364;7.246;2022-11-21T14:59:01;7.50;99.90
68051;DHT22;54839;51.364;7.246;2022-11-21T15:01:29;7.40;99.90
68051;DHT22;54839;51.364;7.246;2022-11-21T15:04:04;7.20;99.90
68051;DHT22;54839;51.364;7.246;2022-11-21T15:06:33;7.10;99.90
68051;DHT22;54839;51.364;7.246;2022-11-21T15:09:04;7.00;99.90
68051;DHT22;54839;51.364;7.246;2022-11-21T15:11:36;6.90;99.90
68051;DHT22;54839;51.364;7.246;2022-11-21T15:14:11;6.80;99.90
68051;DHT22;54839;51.364;7.246;2022-11-21T15:16:41;6.70;99.90
68051;DHT22;54839;51.364;7.246;2022-11-21T15:19:10;6.50;99.90
68051;DHT22;54839;51.364;7.246;2022-11-21T15:21:35;6.60;99.90
68051;DHT22;54839;51.364;7.246;2022-11-21T15:24:32;6.40;99.90
68051;DHT22;54839;51.364;7.246;2022-11-21T15:27:00;6.40;99.90
68051;DHT22;54839;51.364;7.246;2022-11-21T15:29:46;6.50;99.90
68051;DHT22;54839;51.364;7.246;2022-11-21T15:32:11;6.40;99.90
68051;DHT22;54839;51.364;7.246;2022-11-21T15:34:37;6.30;99.90
68051;DHT22;54839;51.364;7.246;2022-11-21T15:37:05;6.30;99.90
68051;DHT22;54839;51.364;7.246;2022-11-21T15:39:33;6.20;99.90
68051;DHT22;54839;51.364;7.246;2022-11-21T15:45:03;6.10;99.90
68051;DHT22;54839;51.364;7.246;2022-11-21T15:47:43;6.10;99.90
68051;DHT22;54839;51.364;7.246;2022-11-21T15:50:08;6.00;99.90
68051;DHT22;54839;51.364;7.246;2022-11-21T15:52:48;6.00;99.90
68051;DHT22;54839;51.364;7.246;2022-11-21T15:55:25;6.00;99.90
68051;DHT22;54839;51.364;7.246;2022-11-21T15:57:53;5.90;99.90
68051;DHT22;54839;51.364;7.246;2022-11-21T16:00:18;5.90;99.90
68051;DHT22;54839;51.364;7.246;2022-11-21T16:02:44;5.80;99.90
68051;DHT22;54839;51.364;7.246;2022-11-21T16:05:13;5.80;99.90
68051;DHT22;54839;51.364;7.246;2022-11-21T16:07:40;5.80;99.90
68051;DHT22;54839;51.364;7.246;2022-11-21T16:10:06;5.70;99.90
68051;DHT22;54839;51.364;7.246;2022-11-21T16:12:32;5.60;99.90
68051;DHT22;54839;51.364;7.246;2022-11-21T16:14:58;5.80;99.90
68051;DHT22;54839;51.364;7.246;2022-11-21T16:17:23;5.80;99.90
68051;DHT22;54839;51.364;7.246;2022-11-21T16:19:49;5.80;99.90
68051;DHT22;54839;51.364;7.246;2022-11-21T16:22:14;5.70;99.90
68051;DHT22;54839;51.364;7.246;2022-11-21T16:24:41;5.80;99.90
68051;DHT22;54839;51.364;7.246;2022-11-21T16:27:06;5.70;99.90
68051;DHT22;54839;51.364;7.246;2022-11-21T16:29:32;5.70;99.90
68051;DHT22;54839;51.364;7.246;2022-11-21T16:31:58;5.80;99.90
68051;DHT22;54839;51.364;7.246;2022-11-21T16:34:25;5.90;99.90
68051;DHT22;54839;51.364;7.246;2022-11-21T16:36:51;5.80;99.90
68051;DHT22;54839;51.364;7.246;2022-11-21T16:39:16;5.80;99.90
68051;DHT22;54839;51.364;7.246;2022-11-21T16:41:42;5.80;99.90
68051;DHT22;54839;51.364;7.246;2022-11-21T16:44:13;5.80;99.90
68051;DHT22;54839;51.364;7.246;2022-11-21T16:46:44;5.80;99.90
68051;DHT22;54839;51.364;7.246;2022-11-21T16:49:11;5.80;99.90
68051;DHT22;54839;51.364;7.246;2022-11-21T16:51:36;5.70;99.90
68051;DHT22;54839;51.364;7.246;2022-11-21T16:54:02;5.80;99.90
68051;DHT22;54839;51.364;7.246;2022-11-21T16:56:28;5.70;99.90
68051;DHT22;54839;51.364;7.246;2022-11-21T16:58:53;5.70;99.90
68051;DHT22;54839;51.364;7.246;2022-11-21T17:01:23;5.80;99.90
68051;DHT22;54839;51.364;7.246;2022-11-21T17:03:50;5.70;99.90
68051;DHT22;54839;51.364;7.246;2022-11-21T17:06:18;5.80;99.90
68051;DHT22;54839;51.364;7.246;2022-11-21T17:08:44;5.90;99.90
68051;DHT22;54839;51.364;7.246;2022-11-21T17:11:11;5.80;99.90
68051;DHT22;54839;51.364;7.246;2022-11-21T17:13:37;5.80;99.90
68051;DHT22;54839;51.364;7.246;2022-11-21T17:16:04;5.80;99.90
68051;DHT22;54839;51.364;7.246;2022-11-21T17:18:30;5.80;99.90
68051;DHT22;54839;51.364;7.246;2022-11-21T17:20:55;5.80;99.90
68051;DHT22;54839;51.364;7.246;2022-11-21T17:23:21;5.80;99.90
68051;DHT22;54839;51.364;7.246;2022-11-21T17:25:46;5.80;99.90
68051;DHT22;54839;51.364;7.246;2022-11-21T17:28:12;5.80;99.90
68051;DHT22;54839;51.364;7.246;2022-11-21T17:30:38;5.80;99.90
68051;DHT22;54839;51.364;7.246;2022-11-21T17:33:11;5.90;99.90
68051;DHT22;54839;51.364;7.246;2022-11-21T17:35:36;5.70;99.90
68051;DHT22;54839;51.364;7.246;2022-11-21T17:38:02;5.80;99.90
68051;DHT22;54839;51.364;7.246;2022-11-21T17:40:27;5.80;99.90
68051;DHT22;54839;51.364;7.246;2022-11-21T17:42:53;5.80;99.90
68051;DHT22;54839;51.364;7.246;2022-11-21T17:45:18;5.90;99.90
68051;DHT22;54839;51.364;7.246;2022-11-21T17:47:44;5.90;99.90
68051;DHT22;54839;51.364;7.246;2022-11-21T17:50:11;5.90;99.90
68051;DHT22;54839;51.364;7.246;2022-11-21T17:52:36;5.90;99.90
68051;DHT22;54839;51.364;7.246;2022-11-21T17:55:03;6.00;99.90